Language selection

Weather shortcuts

Lake Winnipegosis: Past 24 Hour Conditions

 

Norway House Airport

04:00 AM CDT 24 July 2024
Disclaimer

This table is a summary of hourly weather conditions for the past 24 hours.
Please note that these observations might not always be representative of weather conditions over their associated marine area.

Date / Time
(CDT)
Wind(knots) Conditions Visibility(km) Pressure(kPa) Air tempC) Relative humidity(%) Dew pointC) Humidex
24 July 2024
4:00 SE 2 Clear 16 102.1 13 N/A N/A *
3:00 SE 3 Clear 16 102.1 14 100 14 *
2:00 ESE 4 Clear 16 102.1 13 N/A N/A *
1:00 calm Clear 16 102.1 13 N/A N/A *
0:00 calm Clear 16 102.1 14 100 14 *
23 July 2024
23:00 calm Clear 16 102.1 15 93 14 *
22:00 SW 3 Clear 16 102.1 17 79 14 *
21:00 SW 2 Sunny 16 102.1 21 58 12 23
20:00 WSW 3 Sunny 16 102.1 22 55 13 25
19:00 SW 7 Sunny 16 102.1 23 50 12 25
18:00 WSW 5 Sunny 16 102.1 24 46 12 26
17:00 WSW 5 Sunny 16 102.1 24 43 11 26
16:00 WSW 5 Sunny 16 102.1 24 37 9 25
15:00 W 4 Sunny 16 102.2 24 36 8 *
14:00 ENE 3 Sunny 16 102.2 23 38 8 *
13:00 ESE 3 Sunny 16 102.2 22 43 9 *
12:00 SE 4 Sunny 16 102.2 21 47 9 22
11:00 ENE 5 Sunny 16 102.2 20 52 10 22
10:00 ENE 7 Sunny 16 102.3 19 58 10 *
9:00 ESE 5 Sunny 16 102.3 17 70 11 *
8:00 E 6 Sunny 16 102.3 14 82 11 *
7:00 E 5 Sunny 16 102.3 12 100 12 *
6:00 E 5 Sunny 16 102.3 11 100 11 *
5:00 E 5 Clear 16 102.2 11 100 11 *
4:00 E 4 Clear 16 102.2 12 85 10 *

Zoom-in to make a selection

Map of Prairies - Manitoba Lakes marine weather areas Lake Winnipeg South Basin - 45140 Lake Winnipeg North - 45144 Lake Winnipeg Narrows - 45145 Lake Of the Woods - 45148 Carberry Portage Southport Airport Wasagaming Sprague Winnipeg Richardson Int'l Airport Berens River Airport George Island Fisher Branch Gimli Harbour Gimli Grand Rapids Victoria Beach Dauphin Airport McCreary Oak Point Marine Swan River Norway House Airport Kenora Airport Royal Island
Legend:
buoy Buoy
land station Land Station

Prairies - Manitoba Lakes Area

Another Region

Features

New Predicting and Alerting Coastal Flooding Program

Find out about coastal flooding coverage, forecasts and warnings in your region

Date modified: